Terminal Aerodrome Forecast
Issued by NWS

Home | Current Version | Previous Version | Text Only | Print | Product List | Glossary On
Versions: 1 2 3 4 5 6 7 8 9 10 11 12 13 14 15 16 17 18 19 20 21 22 23 24 25 26 27 28 29 30 31 32 33 34 35 36 37 38 39 40
000
FTUS45 KBOI 202214 AAA
TAFTWF
TAF AMD
KTWF 202214Z 2022/2118 14013G22KT P6SM BKN050
     FM210500 16007KT P6SM VCSH SCT030 OVC050
     FM210800 18007KT 3SM -SHSN BR OVC025
     FM211400 22007KT P6SM SCT025 OVC035=

USA.gov is the U.S. government's official web portal to all federal, state and local government web resources and services.